Time;durP1;ratioP1;P1;durP2;ratioP2;P2;SDS_P1;SDS_P2;PMS_P1;PMS_P2;Temp;Humidity;BMP_temperature;BMP_pressure;BME280_temperature;BME280_humidity;BME280_pressure;Samples;Min_cycle;Max_cycle;Signal;HPM_P1;HPM_P2
2022/03/22 00:02:05;;;;;;;14.58;10.25;;;27.00;96.80;;;;;;1796369;79;21177;-82
2022/03/22 00:04:36;;;;;;;12.35;9.93;;;27.00;96.70;;;;;;1800275;78;21235;-82
2022/03/22 00:07:08;;;;;;;15.63;10.10;;;27.00;96.60;;;;;;1795509;78;21162;-86
2022/03/22 00:09:39;;;;;;;13.35;9.10;;;27.00;96.50;;;;;;1795460;78;21167;-78
2022/03/22 00:12:19;;;;;;;11.93;7.87;;;27.00;96.50;;;;;;1790116;78;21677;-79
2022/03/22 00:14:53;;;;;;;10.50;7.62;;;27.00;96.10;;;;;;1781478;79;21766;-79
2022/03/22 00:17:25;;;;;;;10.18;7.67;;;27.10;96.00;;;;;;1774033;80;21227;-79
2022/03/22 00:19:59;;;;;;;12.43;8.43;;;27.10;96.00;;;;;;1809089;78;21183;-79
2022/03/22 00:22:30;;;;;;;12.82;8.78;;;27.00;95.80;;;;;;1787316;80;21210;-79
2022/03/22 00:25:08;;;;;;;10.55;8.08;;;27.10;95.80;;;;;;1769681;80;21089;-79
2022/03/22 00:30:12;;;;;;;11.25;7.83;;;27.10;95.70;;;;;;1795413;80;21225;-79
2022/03/22 00:32:42;;;;;;;11.05;8.48;;;27.20;95.70;;;;;;1796834;78;21182;-78
2022/03/22 00:35:18;;;;;;;12.07;7.85;;;27.20;95.60;;;;;;1774428;80;21212;-79
2022/03/22 00:37:50;;;;;;;10.32;7.53;;;27.20;95.40;;;;;;1796500;79;21091;-78
2022/03/22 00:40:19;;;;;;;13.68;8.10;;;27.30;95.20;;;;;;1777107;79;21210;-80
2022/03/22 00:42:53;;;;;;;13.55;7.65;;;27.40;95.20;;;;;;1790985;79;21666;-79
2022/03/22 00:45:27;;;;;;;9.28;6.62;;;27.50;95.00;;;;;;1788166;80;21181;-80
2022/03/22 00:47:58;;;;;;;13.78;7.22;;;27.50;94.80;;;;;;1787148;80;21151;-80
2022/03/22 00:50:33;;;;;;;8.58;6.65;;;27.60;94.70;;;;;;1812797;78;21663;-78
2022/03/22 00:53:07;;;;;;;10.65;7.58;;;27.70;94.60;;;;;;1811708;78;21559;-79
2022/03/22 00:55:40;;;;;;;11.97;7.37;;;27.80;94.40;;;;;;1825220;78;21261;-78
2022/03/22 00:58:11;;;;;;;11.50;7.72;;;27.80;94.30;;;;;;1791475;78;21716;-81
2022/03/22 01:00:42;;;;;;;9.98;6.75;;;27.80;94.20;;;;;;1795022;80;21666;-80
2022/03/22 01:03:15;;;;;;;12.25;7.20;;;27.90;94.20;;;;;;1809898;78;21191;-80
2022/03/22 01:05:50;;;;;;;11.50;7.70;;;28.00;94.10;;;;;;1851540;76;21119;-79
2022/03/22 01:08:18;;;;;;;10.93;8.05;;;28.10;94.00;;;;;;1868234;75;21136;-80
2022/03/22 01:11:07;;;;;;;10.53;7.90;;;28.10;93.80;;;;;;1846194;76;21153;-81
2022/03/22 01:13:38;;;;;;;13.98;8.43;;;28.20;93.80;;;;;;1863472;75;21171;-81
2022/03/22 01:16:09;;;;;;;11.85;8.08;;;28.20;93.70;;;;;;1874612;75;21173;-80
2022/03/22 01:18:39;;;;;;;14.13;8.85;;;28.20;93.70;;;;;;1856544;75;21186;-80
2022/03/22 01:21:10;;;;;;;11.28;8.75;;;28.20;93.70;;;;;;1859928;75;21230;-82
2022/03/22 01:23:42;;;;;;;11.30;8.00;;;28.10;93.70;;;;;;1864686;75;21209;-80
2022/03/22 01:26:14;;;;;;;11.75;8.65;;;28.20;93.80;;;;;;1860677;75;21162;-79
2022/03/22 01:28:45;;;;;;;12.05;8.70;;;28.20;94.00;;;;;;1880108;76;21629;-81
2022/03/22 01:31:16;;;;;;;12.65;9.38;;;28.20;93.90;;;;;;1878342;76;21151;-80
2022/03/22 01:33:47;;;;;;;14.98;9.65;;;28.20;94.00;;;;;;1863996;75;21155;-80
2022/03/22 01:36:18;;;;;;;13.50;9.50;;;28.30;93.90;;;;;;1800701;79;21249;-80
2022/03/22 01:38:49;;;;;;;14.60;9.40;;;28.30;93.80;;;;;;1874660;76;21589;-80
2022/03/22 01:41:19;;;;;;;12.05;8.93;;;28.30;94.00;;;;;;1874475;76;21143;-79
2022/03/22 01:43:50;;;;;;;14.18;8.73;;;28.30;93.90;;;;;;1866302;76;21606;-80
2022/03/22 01:46:27;;;;;;;11.70;8.30;;;28.30;93.80;;;;;;1872743;76;21171;-80
2022/03/22 01:48:56;;;;;;;12.95;9.03;;;28.30;93.80;;;;;;1858283;76;21661;-71
2022/03/22 01:51:29;;;;;;;22.00;9.90;;;28.30;93.70;;;;;;1858590;76;21162;-72
2022/03/22 01:54:00;;;;;;;12.98;8.45;;;28.40;93.70;;;;;;1860372;75;21207;-72
2022/03/22 01:56:31;;;;;;;12.47;8.15;;;28.40;93.80;;;;;;1851416;75;21562;-73
2022/03/22 01:59:09;;;;;;;12.03;8.63;;;28.50;93.70;;;;;;1856514;76;21187;-71
2022/03/22 02:06:48;;;;;;;11.28;7.90;;;28.50;93.60;;;;;;1889928;74;21183;-71
2022/03/22 02:09:19;;;;;;;12.63;8.48;;;28.70;93.50;;;;;;1888359;74;21258;-72
2022/03/22 02:11:50;;;;;;;9.08;7.72;;;28.70;93.20;;;;;;1905696;74;21132;-72
2022/03/22 02:14:21;;;;;;;11.35;9.05;;;28.80;93.00;;;;;;1887345;74;21644;-72
2022/03/22 02:17:11;;;;;;;13.28;8.60;;;28.90;93.10;;;;;;1902265;74;21674;-72
2022/03/22 02:19:42;;;;;;;10.50;8.35;;;28.90;93.10;;;;;;1901436;74;21215;-72
2022/03/22 02:22:17;;;;;;;13.18;8.38;;;29.00;92.90;;;;;;1904071;74;21161;-72
2022/03/22 02:24:49;;;;;;;15.58;8.55;;;29.10;92.60;;;;;;1899831;74;21487;-71
2022/03/22 02:27:21;;;;;;;12.82;8.05;;;29.10;92.60;;;;;;1911044;74;21158;-71
2022/03/22 02:29:57;;;;;;;10.63;7.80;;;29.20;92.60;;;;;;1892740;74;21126;-74
2022/03/22 02:32:25;;;;;;;13.25;7.83;;;29.30;92.30;;;;;;1894225;74;21038;-74
2022/03/22 02:34:57;;;;;;;12.95;8.00;;;29.30;92.00;;;;;;1908935;75;21169;-70
2022/03/22 02:37:28;;;;;;;10.95;7.10;;;29.40;92.20;;;;;;1903045;75;21555;-71
2022/03/22 02:40:05;;;;;;;10.93;7.55;;;29.50;91.90;;;;;;1907076;74;21153;-70
2022/03/22 02:42:38;;;;;;;10.13;7.72;;;29.50;91.80;;;;;;1903598;75;21211;-71
2022/03/22 02:45:11;;;;;;;13.28;7.72;;;29.60;91.80;;;;;;1896581;74;21157;-73
2022/03/22 02:47:43;;;;;;;10.32;7.42;;;29.70;91.70;;;;;;1888698;74;21169;-73
2022/03/22 02:50:14;;;;;;;10.28;6.45;;;29.90;91.50;;;;;;1913539;75;21200;-72
2022/03/22 02:52:45;;;;;;;8.98;6.85;;;29.90;91.20;;;;;;1900063;75;21139;-72
2022/03/22 02:55:16;;;;;;;10.93;7.08;;;30.10;90.70;;;;;;1899611;75;21090;-74
2022/03/22 02:57:48;;;;;;;8.33;6.60;;;30.30;90.70;;;;;;1901924;74;21173;-73
2022/03/22 03:00:20;;;;;;;9.95;6.62;;;30.40;90.80;;;;;;1898868;75;21083;-72
2022/03/22 03:02:53;;;;;;;10.80;7.08;;;30.50;90.20;;;;;;1895832;75;21608;-72
2022/03/22 03:05:24;;;;;;;8.25;6.37;;;30.60;90.00;;;;;;1909623;74;21076;-71
2022/03/22 03:07:56;;;;;;;10.28;6.53;;;30.70;89.30;;;;;;1916350;74;21506;-72
2022/03/22 03:10:28;;;;;;;10.48;6.87;;;30.80;88.30;;;;;;1905691;74;21601;-73
2022/03/22 03:13:01;;;;;;;11.33;7.45;;;30.90;88.30;;;;;;1898152;74;21194;-73
2022/03/22 03:15:32;;;;;;;11.08;6.97;;;30.90;88.70;;;;;;1902965;74;21258;-72
2022/03/22 03:18:03;;;;;;;8.65;6.00;;;30.90;87.90;;;;;;1900626;74;21141;-72
2022/03/22 03:20:34;;;;;;;10.03;5.95;;;31.10;87.10;;;;;;1907693;74;21102;-72
2022/03/22 03:23:05;;;;;;;12.10;6.78;;;31.10;86.70;;;;;;1903529;74;21146;-71
2022/03/22 03:25:36;;;;;;;7.25;5.30;;;31.20;86.00;;;;;;1887660;75;21143;-73
2022/03/22 03:28:09;;;;;;;8.45;5.40;;;31.40;84.40;;;;;;1898158;74;21170;-73
2022/03/22 03:30:39;;;;;;;7.30;5.40;;;31.50;84.50;;;;;;1917025;74;21114;-73
2022/03/22 03:33:11;;;;;;;8.10;5.47;;;31.60;84.00;;;;;;1911920;74;21181;-73
2022/03/22 03:35:44;;;;;;;7.00;5.08;;;31.70;83.20;;;;;;1898984;74;21264;-72
2022/03/22 03:38:15;;;;;;;8.20;5.15;;;31.90;82.20;;;;;;1891127;74;21643;-73
2022/03/22 03:43:18;;;;;;;6.53;4.85;;;32.20;80.70;;;;;;1916184;74;21195;-72
2022/03/22 03:48:21;;;;;;;6.47;4.58;;;32.30;80.40;;;;;;1861779;75;21676;-72
2022/03/22 03:50:52;;;;;;;7.67;4.50;;;32.30;81.00;;;;;;1906278;74;21522;-72
2022/03/22 03:53:23;;;;;;;7.40;4.75;;;32.40;79.70;;;;;;1908713;74;22057;-73
2022/03/22 03:55:54;;;;;;;8.35;4.20;;;32.50;78.40;;;;;;1919292;74;21236;-72
2022/03/22 03:58:25;;;;;;;5.47;4.60;;;32.60;78.60;;;;;;1902961;74;21581;-73
2022/03/22 04:00:56;;;;;;;7.70;4.40;;;32.60;78.50;;;;;;1910040;74;21170;-74
2022/03/22 04:03:27;;;;;;;9.43;5.22;;;32.50;79.40;;;;;;1896450;74;21616;-72
2022/03/22 04:05:58;;;;;;;6.50;5.15;;;32.30;79.60;;;;;;1889294;76;21948;-72
2022/03/22 04:08:29;;;;;;;6.92;4.70;;;32.30;79.90;;;;;;1896769;74;21184;-73
2022/03/22 04:11:00;;;;;;;6.87;4.90;;;32.30;80.30;;;;;;1868343;76;21075;-73
2022/03/22 04:13:31;;;;;;;6.50;4.47;;;32.30;79.00;;;;;;1897560;74;21051;-73
2022/03/22 04:16:03;;;;;;;10.40;5.20;;;32.40;79.80;;;;;;1871668;75;21534;-72
2022/03/22 04:18:34;;;;;;;7.83;4.75;;;32.40;79.60;;;;;;1905808;74;21193;-73
2022/03/22 04:21:07;;;;;;;6.90;4.42;;;32.40;79.00;;;;;;1918072;74;21719;-72
2022/03/22 04:23:38;;;;;;;6.55;4.50;;;32.40;78.90;;;;;;1895555;75;21749;-72
2022/03/22 04:26:09;;;;;;;8.13;4.60;;;32.50;79.40;;;;;;1894225;75;21176;-72
2022/03/22 04:33:44;;;;;;;7.28;5.28;;;32.60;79.00;;;;;;1885685;75;21118;-73
2022/03/22 04:36:15;;;;;;;8.43;5.17;;;32.70;79.20;;;;;;1887434;75;21134;-73
2022/03/22 04:38:47;;;;;;;5.50;4.53;;;32.80;79.10;;;;;;1888589;75;21561;-73
2022/03/22 04:41:18;;;;;;;6.25;4.87;;;32.90;77.60;;;;;;1883046;75;21620;-73
2022/03/22 04:43:48;;;;;;;5.50;4.42;;;33.00;77.80;;;;;;1884342;75;21071;-74
2022/03/22 04:46:19;;;;;;;6.97;4.15;;;33.00;76.70;;;;;;1886883;75;21254;-73
2022/03/22 04:48:50;;;;;;;8.08;4.12;;;33.00;76.90;;;;;;1873913;76;21073;-72
2022/03/22 04:58:58;;;;;;;6.72;4.22;;;33.50;74.40;;;;;;1872212;75;21247;-73
2022/03/22 05:01:29;;;;;;;6.03;4.42;;;33.50;76.10;;;;;;1879348;75;21211;-73
2022/03/22 05:04:00;;;;;;;6.47;3.92;;;33.40;74.50;;;;;;1880501;75;22275;-73
2022/03/22 05:06:35;;;;;;;5.55;3.85;;;33.40;74.80;;;;;;1869825;75;21165;-74
2022/03/22 05:09:05;;;;;;;6.15;3.87;;;33.50;73.80;;;;;;1865279;75;21649;-86
2022/03/22 05:11:37;;;;;;;6.78;3.92;;;33.50;74.90;;;;;;1873719;76;21134;-85
2022/03/22 05:14:09;;;;;;;6.70;4.28;;;33.40;74.40;;;;;;1872552;75;21146;-85
2022/03/22 05:16:40;;;;;;;7.35;4.70;;;33.40;74.30;;;;;;1877162;75;21121;-84
2022/03/22 05:19:13;;;;;;;4.62;3.90;;;33.50;75.30;;;;;;1872997;76;21679;-86
2022/03/22 05:21:43;;;;;;;5.12;4.20;;;33.60;76.00;;;;;;1877426;75;21119;-84
2022/03/22 05:24:14;;;;;;;5.78;4.60;;;33.80;75.10;;;;;;1899955;75;21111;-86
2022/03/22 05:26:50;;;;;;;7.42;4.85;;;33.80;74.00;;;;;;1900351;74;21204;-86
2022/03/22 05:29:18;;;;;;;6.92;4.22;;;33.80;75.10;;;;;;1897777;74;21256;-86
2022/03/22 05:31:49;;;;;;;8.58;5.30;;;33.80;73.10;;;;;;1893004;74;21142;-85
2022/03/22 05:34:19;;;;;;;5.55;4.30;;;33.80;73.70;;;;;;1901661;74;21139;-85
2022/03/22 05:36:50;;;;;;;7.58;4.67;;;33.90;73.70;;;;;;1892548;74;21670;-85
2022/03/22 05:39:21;;;;;;;6.40;4.40;;;34.00;72.80;;;;;;1899574;74;21165;-85
2022/03/22 05:41:52;;;;;;;6.22;4.33;;;34.10;73.20;;;;;;1905939;74;21122;-86
2022/03/22 05:44:23;;;;;;;7.40;4.55;;;34.20;72.00;;;;;;1896453;74;21166;-85
2022/03/22 05:46:58;;;;;;;5.65;3.95;;;34.20;72.20;;;;;;1898250;74;21142;-85
2022/03/22 05:49:27;;;;;;;5.87;3.87;;;34.20;72.10;;;;;;1899460;74;21213;-86
2022/03/22 05:51:58;;;;;;;6.78;3.67;;;34.10;71.60;;;;;;1899230;74;21145;-86
2022/03/22 05:54:29;;;;;;;6.58;4.60;;;33.90;71.30;;;;;;1900379;74;21043;-77
2022/03/22 05:57:01;;;;;;;6.85;4.70;;;33.80;72.30;;;;;;1897428;74;21705;-88
2022/03/22 05:59:32;;;;;;;7.62;4.08;;;33.70;72.60;;;;;;1907219;74;21092;-87
2022/03/22 06:02:05;;;;;;;5.50;4.15;;;33.50;73.50;;;;;;1902844;74;21169;-88
2022/03/22 06:04:36;;;;;;;6.80;4.62;;;33.40;74.10;;;;;;1904984;74;21122;-86
2022/03/22 06:07:08;;;;;;;6.17;3.83;;;33.20;74.40;;;;;;1903775;74;21071;-87
2022/03/22 06:09:39;;;;;;;7.45;4.67;;;33.00;74.70;;;;;;1894687;74;21153;-87
2022/03/22 06:12:10;;;;;;;8.30;4.12;;;32.90;74.90;;;;;;1903322;74;21550;-86
2022/03/22 06:14:41;;;;;;;6.15;4.17;;;32.90;76.40;;;;;;1907305;74;21594;-72
2022/03/22 06:17:12;;;;;;;8.90;4.67;;;32.80;76.00;;;;;;1905840;74;21481;-72
2022/03/22 06:19:43;;;;;;;5.78;3.98;;;32.80;75.70;;;;;;1887186;74;21074;-71
2022/03/22 06:22:15;;;;;;;6.10;3.83;;;32.80;75.20;;;;;;1904443;74;21777;-73
2022/03/22 06:24:46;;;;;;;6.20;4.40;;;32.80;75.60;;;;;;1894270;74;21243;-72
2022/03/22 06:27:17;;;;;;;8.13;4.55;;;32.70;75.50;;;;;;1903643;74;21240;-74
2022/03/22 06:29:48;;;;;;;6.72;3.80;;;32.70;75.90;;;;;;1893738;74;21837;-73
2022/03/22 06:32:19;;;;;;;8.63;4.30;;;32.80;76.10;;;;;;1902928;74;21144;-75
2022/03/22 06:34:52;;;;;;;7.92;4.47;;;32.90;75.70;;;;;;1896787;75;21134;-73
2022/03/22 06:37:26;;;;;;;4.10;3.52;;;33.00;76.00;;;;;;1896829;74;21158;-74
2022/03/22 06:39:56;;;;;;;7.62;3.75;;;33.10;75.80;;;;;;1901683;74;21663;-74
2022/03/22 06:42:27;;;;;;;7.87;3.58;;;33.20;73.80;;;;;;1890100;74;21538;-74
2022/03/22 06:45:00;;;;;;;4.50;3.00;;;33.30;73.70;;;;;;1898620;74;21137;-74
2022/03/22 06:47:35;;;;;;;4.83;3.50;;;33.40;73.50;;;;;;1906069;74;21196;-75
2022/03/22 06:50:08;;;;;;;5.42;3.33;;;33.50;72.40;;;;;;1899078;74;21671;-75
2022/03/22 06:52:40;;;;;;;4.92;3.40;;;33.60;71.60;;;;;;1870694;75;21161;-74
2022/03/22 06:55:13;;;;;;;4.37;3.50;;;33.70;71.60;;;;;;1910196;74;21133;-74
2022/03/22 06:57:45;;;;;;;5.67;3.30;;;33.70;70.70;;;;;;1908340;74;21180;-74
2022/03/22 07:00:19;;;;;;;4.85;3.10;;;33.70;71.40;;;;;;1913131;74;21235;-74
2022/03/22 07:02:50;;;;;;;5.03;3.47;;;33.80;70.50;;;;;;1903908;74;21154;-74
2022/03/22 07:05:21;;;;;;;4.37;3.30;;;33.70;71.00;;;;;;1919153;74;21202;-75
2022/03/22 07:07:54;;;;;;;4.53;2.98;;;33.80;71.00;;;;;;1914281;74;21655;-74
2022/03/22 07:10:26;;;;;;;5.12;3.00;;;33.80;70.00;;;;;;1905285;74;21711;-75
2022/03/22 07:13:04;;;;;;;4.97;3.05;;;33.90;69.70;;;;;;1913197;74;21632;-73
2022/03/22 07:15:37;;;;;;;5.87;3.45;;;33.90;70.70;;;;;;1901551;74;21557;-74
2022/03/22 07:18:13;;;;;;;4.47;3.22;;;33.90;70.50;;;;;;1893566;74;21805;-73
2022/03/22 07:20:43;;;;;;;7.08;3.22;;;34.00;70.70;;;;;;1898648;75;21632;-73
2022/03/22 07:23:15;;;;;;;3.65;2.80;;;33.90;69.80;;;;;;1900373;74;21142;-73
2022/03/22 07:25:46;;;;;;;4.85;2.80;;;34.00;69.50;;;;;;1900103;74;21181;-74
2022/03/22 07:28:17;;;;;;;3.35;2.55;;;33.90;70.50;;;;;;1901646;74;21641;-73
2022/03/22 07:30:48;;;;;;;4.55;2.83;;;33.90;69.10;;;;;;1903539;74;22163;-74
2022/03/22 07:33:19;;;;;;;3.90;2.90;;;33.90;71.10;;;;;;1894505;74;21615;-74
2022/03/22 07:35:50;;;;;;;3.95;2.70;;;34.00;70.00;;;;;;1898883;74;21586;-74
2022/03/22 07:38:21;;;;;;;5.50;2.65;;;34.00;69.40;;;;;;1899628;74;21507;-75
2022/03/22 07:40:52;;;;;;;6.85;2.87;;;34.10;68.90;;;;;;1896821;75;21236;-74
2022/03/22 07:43:23;;;;;;;5.78;3.52;;;34.10;68.40;;;;;;1870854;76;21491;-74
2022/03/22 07:45:54;;;;;;;5.20;2.75;;;34.00;69.50;;;;;;1898093;74;21190;-73
2022/03/22 07:48:26;;;;;;;4.92;3.15;;;34.10;69.70;;;;;;1899478;74;21150;-75
2022/03/22 07:53:29;;;;;;;4.25;2.70;;;34.00;68.20;;;;;;1893725;74;21071;-73
2022/03/22 07:56:01;;;;;;;4.30;2.95;;;34.00;68.00;;;;;;1899159;75;21158;-73
2022/03/22 07:58:32;;;;;;;5.53;3.00;;;33.90;67.70;;;;;;1899501;74;21411;-73
2022/03/22 08:01:03;;;;;;;4.80;3.10;;;34.00;68.20;;;;;;1899948;74;21641;-80
2022/03/22 08:03:34;;;;;;;6.28;3.30;;;34.00;68.30;;;;;;1902388;74;21603;-82
2022/03/22 08:06:07;;;;;;;7.70;2.60;;;34.00;68.10;;;;;;1906465;74;21259;-82
2022/03/22 08:08:43;;;;;;;4.50;2.67;;;34.00;67.70;;;;;;1908418;74;21075;-83
2022/03/22 08:11:11;;;;;;;4.67;2.67;;;33.90;68.30;;;;;;1907721;74;21495;-79
2022/03/22 08:13:42;;;;;;;4.08;2.58;;;33.90;67.10;;;;;;1897446;74;21139;-80
2022/03/22 08:16:14;;;;;;;3.85;2.47;;;33.90;67.40;;;;;;1900465;74;21190;-81
2022/03/22 08:18:47;;;;;;;3.83;2.25;;;33.80;67.00;;;;;;1900927;74;21124;-80
2022/03/22 08:21:18;;;;;;;4.15;2.50;;;33.70;67.90;;;;;;1895150;75;21185;-79
2022/03/22 08:23:50;;;;;;;2.52;2.05;;;33.70;68.30;;;;;;1899083;74;21216;-79
2022/03/22 08:26:23;;;;;;;4.12;2.40;;;33.70;67.40;;;;;;1896559;74;21244;-80
2022/03/22 08:28:55;;;;;;;4.35;2.83;;;33.70;67.10;;;;;;1896368;75;21162;-81
2022/03/22 08:31:26;;;;;;;5.65;2.42;;;33.70;67.80;;;;;;1892615;75;21063;-79
2022/03/22 08:34:01;;;;;;;6.08;2.08;;;33.80;67.20;;;;;;1895710;74;21695;-82
2022/03/22 08:36:35;;;;;;;3.75;2.20;;;33.80;66.50;;;;;;1900652;74;21220;-83
2022/03/22 08:39:10;;;;;;;4.35;2.27;;;33.80;67.20;;;;;;1895138;74;21173;-81
2022/03/22 08:42:00;;;;;;;4.53;2.92;;;33.80;66.80;;;;;;1895021;74;21214;-80
2022/03/22 08:44:31;;;;;;;4.80;2.20;;;33.80;66.70;;;;;;1895220;74;21154;-79
2022/03/22 08:47:03;;;;;;;5.53;3.00;;;33.80;66.50;;;;;;1863590;75;21284;-80
2022/03/22 08:49:34;;;;;;;5.30;2.98;;;33.80;67.60;;;;;;1893819;75;21185;-80
2022/03/22 08:52:05;;;;;;;4.87;2.40;;;33.80;66.80;;;;;;1898067;74;21125;-80
2022/03/22 08:54:37;;;;;;;5.78;3.00;;;33.80;67.50;;;;;;1897453;74;21154;-80
2022/03/22 08:57:08;;;;;;;7.28;2.80;;;33.90;67.10;;;;;;1896813;74;21551;-79
2022/03/22 08:59:39;;;;;;;5.60;2.83;;;33.90;66.40;;;;;;1828415;77;21644;-81
2022/03/22 09:02:10;;;;;;;3.77;2.50;;;33.80;67.60;;;;;;1897700;74;21262;-79
2022/03/22 09:07:14;;;;;;;4.30;2.42;;;33.80;66.40;;;;;;1897021;74;21130;-80
2022/03/22 09:09:45;;;;;;;4.03;2.33;;;33.80;66.80;;;;;;1895909;74;21083;-79
2022/03/22 09:12:16;;;;;;;4.78;3.00;;;33.80;66.60;;;;;;1907201;75;21069;-81
2022/03/22 09:14:47;;;;;;;5.10;2.77;;;33.70;67.00;;;;;;1901331;74;21122;-80
2022/03/22 09:17:18;;;;;;;3.62;2.83;;;33.70;66.30;;;;;;1896316;74;21715;-80
2022/03/22 09:19:49;;;;;;;5.30;3.40;;;33.70;66.40;;;;;;1893812;74;21118;-79
2022/03/22 09:22:21;;;;;;;4.87;3.00;;;33.60;67.80;;;;;;1899376;74;21177;-80
2022/03/22 09:24:53;;;;;;;4.55;2.52;;;33.70;68.20;;;;;;1902192;74;21517;-79
2022/03/22 09:27:25;;;;;;;3.80;2.52;;;33.60;66.90;;;;;;1874859;74;21122;-79
2022/03/22 09:29:57;;;;;;;5.08;2.95;;;33.60;66.80;;;;;;1872618;75;21268;-78
2022/03/22 09:32:29;;;;;;;4.60;2.80;;;33.60;67.00;;;;;;1870522;76;21565;-80
2022/03/22 09:34:59;;;;;;;4.58;2.85;;;33.50;67.20;;;;;;1869514;75;21750;-80
2022/03/22 09:37:31;;;;;;;5.17;2.95;;;33.50;67.30;;;;;;1871072;76;21593;-79
2022/03/22 09:40:02;;;;;;;3.45;2.17;;;33.40;68.90;;;;;;1866954;75;21111;-79
2022/03/22 09:42:34;;;;;;;5.30;2.85;;;33.40;68.10;;;;;;1877700;75;21138;-84
2022/03/22 09:45:10;;;;;;;3.92;2.77;;;33.40;68.10;;;;;;1872683;75;21127;-76
2022/03/22 09:47:42;;;;;;;3.17;2.60;;;33.30;68.10;;;;;;1832960;77;21187;-76
2022/03/22 09:50:14;;;;;;;3.60;2.67;;;33.30;68.30;;;;;;1804854;78;21130;-77
2022/03/22 09:52:45;;;;;;;3.90;2.58;;;33.20;68.50;;;;;;1840978;77;21224;-80
2022/03/22 09:55:20;;;;;;;5.53;3.17;;;33.20;68.40;;;;;;1804219;78;21752;-78
2022/03/22 09:57:51;;;;;;;5.80;2.95;;;33.10;69.00;;;;;;1803995;78;21228;-81
2022/03/22 10:00:23;;;;;;;3.75;2.70;;;33.20;69.20;;;;;;1813080;77;21567;-80
2022/03/22 10:02:54;;;;;;;5.17;3.17;;;33.20;69.10;;;;;;1802349;78;21636;-81
2022/03/22 10:05:28;;;;;;;4.67;3.15;;;33.10;69.60;;;;;;1805466;78;21086;-80
2022/03/22 10:08:04;;;;;;;6.37;3.27;;;33.10;70.10;;;;;;1832659;77;21554;-81
2022/03/22 10:10:41;;;;;;;5.28;3.20;;;33.10;70.10;;;;;;1841033;77;21263;-81
2022/03/22 10:13:14;;;;;;;7.00;3.55;;;33.10;70.20;;;;;;1832150;78;21146;-81
2022/03/22 10:15:46;;;;;;;4.40;2.92;;;33.00;69.90;;;;;;1833563;78;21633;-79
2022/03/22 10:18:19;;;;;;;6.53;3.42;;;33.00;69.40;;;;;;1856283;77;21216;-80
2022/03/22 10:20:54;;;;;;;6.92;3.33;;;33.00;69.80;;;;;;1854162;77;21714;-80
2022/03/22 10:23:25;;;;;;;5.92;3.15;;;33.00;70.20;;;;;;1851903;77;21118;-80
2022/03/22 10:26:04;;;;;;;5.60;3.12;;;33.00;70.10;;;;;;1837570;77;21138;-80
2022/03/22 10:28:39;;;;;;;4.47;2.65;;;33.00;69.40;;;;;;1840122;76;21165;-79
2022/03/22 10:31:13;;;;;;;5.28;2.67;;;33.00;69.30;;;;;;1832249;78;21677;-80
2022/03/22 10:33:49;;;;;;;5.05;2.80;;;33.00;68.60;;;;;;1901227;75;21158;-79
2022/03/22 10:36:25;;;;;;;4.60;2.70;;;33.00;68.60;;;;;;1898576;75;21181;-79
2022/03/22 10:38:55;;;;;;;7.67;3.87;;;32.90;68.80;;;;;;1898441;74;21105;-80
2022/03/22 10:41:29;;;;;;;4.35;3.40;;;32.90;69.70;;;;;;1878872;76;21543;-79
2022/03/22 10:44:05;;;;;;;5.42;3.52;;;32.90;71.50;;;;;;1870767;75;21536;-79
2022/03/22 10:46:44;;;;;;;6.03;3.83;;;32.90;72.00;;;;;;1890423;75;21701;-78
2022/03/22 10:49:13;;;;;;;7.12;3.67;;;32.80;72.10;;;;;;1857380;75;21517;-80
2022/03/22 10:51:47;;;;;;;5.58;3.25;;;32.80;72.40;;;;;;1880856;75;21557;-80
2022/03/22 10:54:20;;;;;;;5.80;3.55;;;32.70;73.00;;;;;;1888227;75;21075;-80
2022/03/22 10:56:53;;;;;;;7.37;4.67;;;32.70;73.40;;;;;;1882802;75;21175;-79
2022/03/22 10:59:30;;;;;;;5.90;3.83;;;32.70;73.40;;;;;;1855006;76;21164;-78
2022/03/22 11:01:59;;;;;;;7.80;3.98;;;32.60;73.60;;;;;;1891590;75;21126;-78
2022/03/22 11:04:32;;;;;;;4.92;4.08;;;32.60;73.90;;;;;;1847595;76;21145;-80
2022/03/22 11:07:05;;;;;;;5.55;3.92;;;32.60;74.00;;;;;;1868257;76;21063;-79
2022/03/22 11:09:36;;;;;;;5.62;3.98;;;32.50;74.20;;;;;;1874166;75;21089;-80
2022/03/22 11:12:07;;;;;;;7.37;3.92;;;32.50;74.40;;;;;;1850923;77;21229;-80
2022/03/22 11:14:41;;;;;;;5.20;3.58;;;32.50;74.50;;;;;;1895401;75;21614;-80
2022/03/22 11:17:12;;;;;;;5.45;3.60;;;32.40;74.50;;;;;;1880464;75;21100;-80
2022/03/22 11:19:44;;;;;;;6.42;4.10;;;32.40;74.70;;;;;;1855660;77;21504;-80
2022/03/22 11:22:17;;;;;;;5.78;4.30;;;32.40;74.80;;;;;;1893208;75;21580;-81
2022/03/22 11:24:48;;;;;;;7.53;5.47;;;32.40;74.10;;;;;;1878966;75;21259;-88
2022/03/22 11:27:22;;;;;;;5.72;4.33;;;32.30;75.20;;;;;;1864367;75;21108;-87
2022/03/22 11:29:53;;;;;;;6.80;3.85;;;32.30;75.40;;;;;;1894723;74;21138;-85
2022/03/22 11:35:07;;;;;;;6.85;3.87;;;32.30;75.40;;;;;;1864923;76;21146;-87
2022/03/22 11:37:37;;;;;;;5.47;3.90;;;32.20;75.60;;;;;;1893951;75;21142;-86
2022/03/22 11:42:46;;;;;;;10.23;4.78;;;32.20;75.60;;;;;;1817202;79;21185;-86
2022/03/22 11:45:17;;;;;;;6.08;4.28;;;32.10;75.60;;;;;;1797204;78;21110;-85
2022/03/22 11:47:49;;;;;;;7.65;4.70;;;32.10;75.50;;;;;;1865384;75;21120;-85
2022/03/22 11:50:21;;;;;;;7.00;4.22;;;32.10;75.60;;;;;;1882675;75;21153;-85
2022/03/22 11:52:54;;;;;;;7.30;4.62;;;32.10;75.80;;;;;;1857595;77;21171;-85
2022/03/22 11:55:30;;;;;;;9.05;4.30;;;32.10;76.00;;;;;;1893755;75;21142;-86
2022/03/22 11:58:03;;;;;;;7.97;4.37;;;32.10;76.10;;;;;;1876578;75;21148;-86
2022/03/22 12:00:37;;;;;;;8.90;4.83;;;32.10;76.40;;;;;;1885193;75;21079;-87
2022/03/22 12:03:10;;;;;;;5.70;4.28;;;32.00;76.40;;;;;;1892435;75;21925;-85
2022/03/22 12:05:42;;;;;;;6.85;4.60;;;32.00;76.50;;;;;;1874408;75;21237;-85
2022/03/22 12:08:15;;;;;;;7.40;4.60;;;32.00;76.70;;;;;;1892785;74;21185;-86
2022/03/22 12:10:48;;;;;;;8.80;5.17;;;32.00;77.00;;;;;;1891613;75;21593;-86
2022/03/22 12:13:20;;;;;;;8.53;5.35;;;32.00;77.20;;;;;;1857762;77;21602;-87
2022/03/22 12:15:57;;;;;;;8.73;5.53;;;31.90;76.90;;;;;;1889964;75;21151;-85
2022/03/22 12:18:30;;;;;;;8.53;5.30;;;31.90;77.70;;;;;;1864875;75;21231;-86
2022/03/22 12:21:02;;;;;;;9.00;5.67;;;31.90;78.20;;;;;;1870933;75;21141;-85
2022/03/22 12:23:34;;;;;;;8.30;6.05;;;31.90;78.40;;;;;;1896715;75;22422;-85
2022/03/22 12:26:06;;;;;;;11.68;6.10;;;31.90;78.40;;;;;;1887506;75;21222;-86
2022/03/22 12:28:56;;;;;;;11.10;6.08;;;31.90;78.70;;;;;;1884258;74;21183;-86
2022/03/22 12:31:27;;;;;;;8.58;6.05;;;31.80;78.80;;;;;;1872748;74;21172;-86
2022/03/22 12:34:01;;;;;;;9.50;6.00;;;31.80;79.10;;;;;;1891273;76;21159;-88
2022/03/22 12:36:32;;;;;;;8.83;5.33;;;31.80;79.20;;;;;;1892055;76;21098;-86
2022/03/22 12:39:03;;;;;;;9.03;6.25;;;31.80;79.50;;;;;;1888033;76;21138;-86
2022/03/22 12:41:34;;;;;;;11.55;6.28;;;31.70;79.70;;;;;;1893569;76;21173;-85
2022/03/22 12:44:07;;;;;;;11.83;7.47;;;31.70;80.00;;;;;;1893745;76;21146;-86
2022/03/22 12:46:38;;;;;;;13.62;7.05;;;31.70;80.00;;;;;;1893933;74;21091;-87
2022/03/22 12:49:13;;;;;;;10.00;6.90;;;31.70;80.30;;;;;;1877173;76;21117;-86
2022/03/22 12:51:53;;;;;;;12.63;6.87;;;31.70;80.50;;;;;;1891428;76;21174;-86
2022/03/22 12:54:32;;;;;;;11.78;6.95;;;31.70;81.30;;;;;;1890581;76;21130;-85
2022/03/22 12:57:18;;;;;;;12.53;7.70;;;31.60;80.70;;;;;;1880082;76;21076;-85
2022/03/22 12:59:49;;;;;;;13.85;6.97;;;31.60;80.40;;;;;;1888518;76;21166;-84
2022/03/22 13:02:25;;;;;;;10.40;7.40;;;31.60;80.40;;;;;;1893094;76;21118;-85
2022/03/22 13:05:05;;;;;;;8.55;6.17;;;31.60;80.30;;;;;;1895636;76;21144;-83
2022/03/22 13:07:42;;;;;;;9.28;5.67;;;31.60;79.90;;;;;;1891748;76;21130;-85
2022/03/22 13:12:48;;;;;;;11.60;6.30;;;31.60;79.60;;;;;;1883304;76;21101;-85
2022/03/22 13:15:25;;;;;;;7.30;5.53;;;31.50;79.70;;;;;;1866819;76;21310;-87
2022/03/22 13:18:01;;;;;;;12.35;6.08;;;31.50;79.70;;;;;;1872283;76;21086;-87
2022/03/22 13:20:38;;;;;;;10.93;6.55;;;31.50;80.00;;;;;;1893066;75;21150;-87
2022/03/22 13:23:09;;;;;;;9.88;6.40;;;31.50;80.10;;;;;;1882641;76;21191;-88
2022/03/22 13:25:45;;;;;;;9.73;6.50;;;31.50;80.10;;;;;;1891884;74;21114;-86
2022/03/22 13:28:22;;;;;;;11.83;7.10;;;31.50;80.20;;;;;;1892586;76;21139;-88
2022/03/22 13:30:54;;;;;;;11.68;7.22;;;31.50;80.00;;;;;;1868335;76;21161;-86
2022/03/22 13:33:29;;;;;;;15.98;8.13;;;31.50;80.20;;;;;;1867800;76;21139;-87
2022/03/22 13:36:03;;;;;;;14.15;7.97;;;31.40;80.10;;;;;;1870644;76;21136;-87
2022/03/22 13:38:36;;;;;;;15.40;8.33;;;31.40;80.10;;;;;;1866545;76;21165;-87
2022/03/22 13:41:07;;;;;;;13.68;9.08;;;31.40;80.50;;;;;;1799179;78;21120;-87
2022/03/22 13:43:40;;;;;;;16.05;9.38;;;31.40;80.80;;;;;;1817779;79;21076;-85
2022/03/22 13:46:15;;;;;;;13.20;9.23;;;31.40;82.00;;;;;;1816783;79;21143;-86
2022/03/22 13:48:53;;;;;;;15.30;9.38;;;31.40;81.30;;;;;;1833016;77;21165;-86